Time;durP1;ratioP1;P1;durP2;ratioP2;P2;SDS_P1;SDS_P2;PMS_P1;PMS_P2;Temp;Humidity;BMP_temperature;BMP_pressure;BME280_temperature;BME280_humidity;BME280_pressure;Samples;Min_cycle;Max_cycle;Signal;HPM_P1;HPM_P2
2024/02/12 00:02:14;;;;;;;2.95;1.50;;;;;;;10.98;66.68;95437.63;4884306;28;20039;-84
2024/02/12 00:04:39;;;;;;;2.80;1.25;;;;;;;11.27;67.18;95450.38;4911934;28;20036;-81
2024/02/12 00:07:05;;;;;;;2.33;1.25;;;;;;;11.28;66.62;95446.72;4904636;29;20038;-82
2024/02/12 00:09:30;;;;;;;3.60;1.80;;;;;;;11.19;66.62;95449.22;4903731;29;20039;-83
2024/02/12 00:11:56;;;;;;;2.30;1.10;;;;;;;11.21;66.29;95446.34;4890569;28;20040;-83
2024/02/12 00:14:24;;;;;;;1.70;1.33;;;;;;;11.25;66.73;95457.69;4874523;29;20354;-84
2024/02/12 00:16:49;;;;;;;2.83;1.02;;;;;;;11.34;66.67;95455.94;4920764;29;20048;-84
2024/02/12 00:19:17;;;;;;;3.97;2.20;;;;;;;11.24;66.55;95456.94;4874540;29;20449;-83
2024/02/12 00:21:45;;;;;;;3.25;1.20;;;;;;;11.31;66.00;95466.19;4908924;29;20139;-84
2024/02/12 00:24:35;;;;;;;2.72;1.13;;;;;;;11.34;66.10;95455.94;4956618;28;20054;-81
2024/02/12 00:27:07;;;;;;;3.08;1.25;;;;;;;11.26;66.18;95464.47;4889834;28;20485;-82
2024/02/12 00:29:32;;;;;;;1.83;0.82;;;;;;;11.36;65.48;95463.47;4903155;29;20032;-85
2024/02/12 00:31:58;;;;;;;2.20;1.20;;;;;;;11.18;66.43;95458.09;4918252;28;20041;-82
2024/02/12 00:34:28;;;;;;;1.77;1.23;;;;;;;11.40;66.03;95467.81;4903011;29;20032;-84
2024/02/12 00:36:53;;;;;;;2.88;1.48;;;;;;;11.38;66.37;95469.19;4885988;29;20020;-84
2024/02/12 00:39:19;;;;;;;1.20;1.10;;;;;;;11.32;66.19;95473.72;4898508;28;20051;-83
2024/02/12 00:41:52;;;;;;;2.80;1.70;;;;;;;11.24;66.07;95469.97;4886724;29;20040;-85
2024/02/12 00:44:18;;;;;;;2.55;1.30;;;;;;;11.21;66.44;95459.34;4881408;29;20032;-82
2024/02/12 00:46:47;;;;;;;2.63;0.98;;;;;;;11.32;66.14;95480.75;4889044;29;20040;-82
2024/02/12 00:49:16;;;;;;;1.15;0.90;;;;;;;11.40;66.21;95480.84;4880914;28;20148;-83
2024/02/12 00:51:42;;;;;;;1.67;0.77;;;;;;;11.25;66.65;95478.53;4889584;28;20611;-85
2024/02/12 00:54:14;;;;;;;1.20;1.00;;;;;;;11.36;66.56;95476.50;4875027;28;20108;-86
2024/02/12 00:56:43;;;;;;;1.73;1.30;;;;;;;11.38;65.38;95477.78;4896066;28;20063;-86
2024/02/12 00:59:14;;;;;;;2.88;1.08;;;;;;;11.26;66.38;95480.09;4907878;29;20032;-82
2024/02/12 01:01:40;;;;;;;1.45;1.13;;;;;;;11.30;66.27;95491.47;4877497;28;20351;-85
2024/02/12 01:04:08;;;;;;;1.60;1.10;;;;;;;11.32;66.31;95494.56;4897235;29;20032;-85
2024/02/12 01:06:34;;;;;;;3.20;1.20;;;;;;;11.37;65.60;95497.06;4902125;28;20392;-82
2024/02/12 01:08:59;;;;;;;2.42;1.33;;;;;;;11.27;65.66;95497.25;4891091;29;20033;-83
2024/02/12 01:11:28;;;;;;;2.25;1.20;;;;;;;11.34;66.35;95492.44;4979066;28;20063;-81
2024/02/12 01:13:54;;;;;;;1.10;1.00;;;;;;;11.42;65.74;95510.00;4917631;29;20058;-82
2024/02/12 01:16:21;;;;;;;1.65;1.05;;;;;;;11.33;66.69;95506.53;4913459;29;20048;-82
2024/02/12 01:18:47;;;;;;;5.25;1.80;;;;;;;11.31;66.07;95513.88;4895331;29;20028;-84
2024/02/12 01:21:12;;;;;;;3.25;1.30;;;;;;;11.22;66.45;95508.56;4913566;28;20049;-80
2024/02/12 01:23:38;;;;;;;1.65;1.30;;;;;;;11.19;66.41;95509.13;4890591;29;20032;-79
2024/02/12 01:26:03;;;;;;;1.80;1.23;;;;;;;11.11;67.18;95507.19;4889191;29;20048;-79
2024/02/12 01:28:31;;;;;;;2.75;1.80;;;;;;;11.21;66.53;95514.81;4897459;29;20491;-80
2024/02/12 01:30:56;;;;;;;2.45;1.40;;;;;;;11.21;66.45;95524.47;4885461;29;20106;-79
2024/02/12 01:33:21;;;;;;;4.35;2.13;;;;;;;11.27;66.10;95531.13;4895092;28;20352;-79
2024/02/12 01:35:48;;;;;;;2.92;1.45;;;;;;;11.21;65.88;95527.09;4872748;29;20408;-79
2024/02/12 01:38:14;;;;;;;2.63;1.40;;;;;;;11.18;66.72;95536.25;4889713;29;20043;-79
2024/02/12 01:40:40;;;;;;;2.45;1.60;;;;;;;11.15;65.95;95530.84;4908899;29;20043;-79
2024/02/12 01:43:06;;;;;;;3.80;1.60;;;;;;;11.18;66.41;95533.63;4890174;29;20396;-80
2024/02/12 01:45:33;;;;;;;2.17;1.33;;;;;;;11.18;66.18;95531.03;4880121;28;20032;-79
2024/02/12 01:47:59;;;;;;;2.90;1.50;;;;;;;11.30;66.21;95535.00;4916859;28;20036;-80
2024/02/12 01:50:24;;;;;;;1.73;1.38;;;;;;;11.30;65.85;95538.38;4882217;29;20040;-80
2024/02/12 01:52:51;;;;;;;2.45;1.77;;;;;;;11.18;65.79;95545.91;4879147;29;20071;-79
2024/02/12 01:55:18;;;;;;;2.75;1.55;;;;;;;11.23;65.26;95553.63;4901234;29;20049;-79
2024/02/12 01:57:46;;;;;;;3.25;1.92;;;;;;;11.24;65.48;95552.53;4889885;29;20104;-79
2024/02/12 02:00:14;;;;;;;1.67;1.55;;;;;;;11.23;65.49;95554.38;4901743;29;20036;-79
2024/02/12 02:02:43;;;;;;;2.55;1.70;;;;;;;11.24;65.57;95550.72;4902641;29;20044;-79
2024/02/12 02:05:10;;;;;;;1.50;1.33;;;;;;;11.24;65.65;95555.16;4892695;29;20493;-79
2024/02/12 02:07:36;;;;;;;2.67;2.10;;;;;;;11.12;65.80;95562.66;4896740;29;20443;-79
2024/02/12 02:10:01;;;;;;;3.58;1.95;;;;;;;11.12;65.91;95563.47;4887161;29;20504;-78
2024/02/12 02:12:27;;;;;;;3.83;2.10;;;;;;;11.02;66.29;95556.56;4899282;29;20075;-79
2024/02/12 02:14:53;;;;;;;3.83;2.75;;;;;;;11.06;65.51;95564.59;4873977;29;20035;-79
2024/02/12 02:17:20;;;;;;;2.90;2.17;;;;;;;10.92;65.48;95564.56;4889651;29;20037;-77
2024/02/12 02:19:49;;;;;;;3.80;1.98;;;;;;;11.14;65.87;95570.94;4902518;29;20039;-80
2024/02/12 02:22:16;;;;;;;3.33;1.73;;;;;;;11.06;65.00;95565.34;4901427;29;20097;-78
2024/02/12 02:24:41;;;;;;;3.28;2.28;;;;;;;11.09;65.01;95576.25;4891570;29;20076;-79
2024/02/12 02:27:06;;;;;;;2.08;1.88;;;;;;;11.11;64.38;95572.31;4886021;29;20059;-80
2024/02/12 02:29:32;;;;;;;4.85;2.10;;;;;;;11.07;64.76;95571.34;4891213;29;20029;-79
2024/02/12 02:31:57;;;;;;;3.88;2.38;;;;;;;11.08;64.96;95566.91;4898096;29;20503;-78
2024/02/12 02:34:23;;;;;;;3.33;1.88;;;;;;;11.11;64.67;95569.72;4900638;29;20087;-79
2024/02/12 02:36:48;;;;;;;2.65;1.90;;;;;;;11.11;64.39;95576.75;4901909;29;20043;-79
2024/02/12 02:39:14;;;;;;;2.42;1.90;;;;;;;11.10;64.37;95573.38;4903623;29;20035;-79
2024/02/12 02:41:43;;;;;;;3.58;1.98;;;;;;;11.12;64.85;95581.69;4885991;28;20039;-79
2024/02/12 02:44:08;;;;;;;2.03;1.50;;;;;;;11.16;64.78;95592.31;4898636;29;20040;-79
2024/02/12 02:46:33;;;;;;;2.80;2.30;;;;;;;11.08;63.67;95588.50;4904532;28;20545;-79
2024/02/12 02:48:59;;;;;;;3.10;1.88;;;;;;;11.02;64.04;95584.47;4889430;29;20076;-79
2024/02/12 02:51:29;;;;;;;3.63;2.30;;;;;;;10.95;64.69;95590.03;4879449;29;20040;-79
2024/02/12 02:53:55;;;;;;;1.98;1.58;;;;;;;11.03;64.21;95597.16;4862156;28;20397;-79
2024/02/12 02:56:22;;;;;;;4.13;2.05;;;;;;;11.05;64.09;95602.09;4895994;28;20429;-79
2024/02/12 02:58:49;;;;;;;3.10;1.65;;;;;;;10.99;64.43;95598.81;4883718;28;20392;-80
2024/02/12 03:01:21;;;;;;;3.00;1.73;;;;;;;11.01;64.59;95590.72;4904741;29;20385;-78
2024/02/12 03:03:50;;;;;;;2.10;1.58;;;;;;;10.97;63.83;95595.72;4870677;28;20043;-79
2024/02/12 03:06:16;;;;;;;3.63;2.10;;;;;;;10.88;64.30;95589.59;4883228;28;20496;-78
2024/02/12 03:08:42;;;;;;;3.47;1.80;;;;;;;10.86;63.97;95605.53;4886240;28;20033;-80
2024/02/12 03:11:08;;;;;;;3.30;1.73;;;;;;;10.90;63.70;95608.34;4903053;29;20047;-79
2024/02/12 03:13:36;;;;;;;6.45;2.38;;;;;;;10.91;64.16;95615.09;4904877;29;20416;-79
2024/02/12 03:16:02;;;;;;;2.13;1.65;;;;;;;10.87;64.25;95604.47;4923133;28;20036;-79
2024/02/12 03:18:27;;;;;;;4.47;1.92;;;;;;;10.95;64.28;95610.06;4892063;29;20388;-79
2024/02/12 03:20:53;;;;;;;3.40;1.67;;;;;;;10.87;64.12;95611.50;4873410;28;20312;-79
2024/02/12 03:23:18;;;;;;;3.25;1.85;;;;;;;10.77;64.19;95622.84;4882951;29;20044;-80
2024/02/12 03:25:43;;;;;;;3.58;2.30;;;;;;;10.77;64.10;95625.44;4887796;28;20036;-79
2024/02/12 03:28:09;;;;;;;3.40;2.05;;;;;;;10.79;63.96;95628.53;4899613;28;20116;-79
2024/02/12 03:30:34;;;;;;;2.75;2.10;;;;;;;10.81;63.30;95633.47;4867838;29;20067;-79
2024/02/12 03:33:02;;;;;;;4.70;2.28;;;;;;;10.83;63.43;95644.38;4882865;29;20155;-79
2024/02/12 03:35:30;;;;;;;3.42;2.00;;;;;;;10.82;64.00;95642.84;4872196;29;20392;-79
2024/02/12 03:37:58;;;;;;;3.55;1.90;;;;;;;10.82;63.24;95643.59;4889619;29;20071;-80
2024/02/12 03:40:28;;;;;;;3.45;1.92;;;;;;;10.79;63.28;95646.75;4881754;29;20087;-79
2024/02/12 03:42:53;;;;;;;2.97;2.10;;;;;;;10.66;63.29;95639.69;4869956;29;20089;-79
2024/02/12 03:45:19;;;;;;;4.70;2.00;;;;;;;10.81;63.73;95651.69;4894435;29;20048;-79
2024/02/12 03:47:46;;;;;;;4.22;1.92;;;;;;;10.75;63.64;95647.63;4887358;28;20043;-79
2024/02/12 04:01:21;;;;;;;5.05;2.70;;;;;;;10.80;64.38;95676.97;4897946;29;20036;-79
2024/02/12 04:03:49;;;;;;;3.63;2.28;;;;;;;10.74;63.71;95651.28;4904631;29;20032;-80
2024/02/12 04:06:15;;;;;;;3.08;2.20;;;;;;;10.79;64.07;95679.84;4902523;29;20102;-77
2024/02/12 04:08:42;;;;;;;4.93;2.42;;;;;;;10.81;64.10;95683.72;4910144;29;20245;-80
2024/02/12 04:11:11;;;;;;;3.90;2.42;;;;;;;10.87;63.29;95681.81;4886244;29;20528;-79
2024/02/12 04:13:37;;;;;;;3.63;2.40;;;;;;;10.65;64.38;95675.34;4904440;29;20094;-79
2024/02/12 04:16:06;;;;;;;4.63;3.20;;;;;;;10.73;64.14;95683.56;4931923;28;20039;-79
2024/02/12 04:18:32;;;;;;;4.93;2.65;;;;;;;10.57;64.40;95672.59;4898465;29;20400;-79
2024/02/12 04:20:59;;;;;;;5.35;2.47;;;;;;;10.72;64.30;95687.22;4892305;29;20044;-79
2024/02/12 04:23:25;;;;;;;5.32;2.85;;;;;;;10.73;63.85;95696.56;4902455;28;20036;-79
2024/02/12 04:25:50;;;;;;;4.45;2.67;;;;;;;10.73;64.10;95709.59;4904277;28;20036;-79
2024/02/12 04:28:18;;;;;;;6.18;3.17;;;;;;;10.73;64.28;95699.19;4887915;29;20036;-79
2024/02/12 04:30:44;;;;;;;3.85;2.20;;;;;;;10.70;63.72;95707.56;4891464;29;20123;-80
2024/02/12 04:33:10;;;;;;;5.43;2.50;;;;;;;10.72;63.62;95714.03;4891331;29;20681;-80
2024/02/12 04:35:36;;;;;;;5.85;3.00;;;;;;;10.74;63.29;95716.34;4882706;29;20043;-79
2024/02/12 04:38:02;;;;;;;4.15;2.50;;;;;;;10.63;63.73;95710.53;4905503;28;20032;-79
2024/02/12 04:40:27;;;;;;;4.53;2.50;;;;;;;10.68;63.27;95728.69;4891511;29;20107;-79
2024/02/12 04:42:53;;;;;;;5.20;2.33;;;;;;;10.56;62.95;95726.47;4883663;29;20044;-79
2024/02/12 04:45:20;;;;;;;6.22;2.72;;;;;;;10.37;63.67;95731.66;4905745;28;20078;-79
2024/02/12 04:47:47;;;;;;;5.88;2.40;;;;;;;10.27;63.34;95727.28;4934166;28;20485;-79
2024/02/12 04:50:12;;;;;;;3.17;2.67;;;;;;;10.21;63.64;95732.84;4898401;29;20036;-79
2024/02/12 04:52:38;;;;;;;5.72;2.88;;;;;;;10.15;63.61;95739.91;4923194;28;20673;-84
2024/02/12 04:55:03;;;;;;;5.90;2.95;;;;;;;10.06;63.48;95746.78;4901895;29;20044;-84
2024/02/12 04:57:29;;;;;;;4.68;2.95;;;;;;;10.09;64.07;95747.00;4872270;29;20031;-85
2024/02/12 04:59:55;;;;;;;6.63;3.42;;;;;;;10.19;63.41;95751.31;4906295;29;20032;-84
2024/02/12 05:02:21;;;;;;;6.50;3.35;;;;;;;10.20;63.62;95754.72;4901376;29;20044;-83
2024/02/12 05:04:46;;;;;;;3.13;2.53;;;;;;;10.24;63.94;95750.50;4888838;29;20036;-84
2024/02/12 05:07:11;;;;;;;4.30;2.53;;;;;;;10.26;64.00;95751.78;4891113;29;20532;-84
2024/02/12 05:09:37;;;;;;;5.65;2.78;;;;;;;10.29;63.37;95745.22;4897171;28;20095;-85
2024/02/12 05:12:03;;;;;;;3.33;2.42;;;;;;;10.26;63.81;95743.19;4906208;29;20111;-83
2024/02/12 05:14:32;;;;;;;3.85;2.50;;;;;;;10.27;64.22;95742.91;4908598;29;20036;-85
2024/02/12 05:17:03;;;;;;;5.72;2.92;;;;;;;10.29;63.24;95740.78;4877185;29;20557;-84
2024/02/12 05:24:56;;;;;;;3.45;2.20;;;;;;;10.26;63.74;95750.97;4892724;29;20416;-83
2024/02/12 05:27:22;;;;;;;7.63;2.65;;;;;;;10.19;63.77;95764.31;4881792;28;20040;-82
2024/02/12 05:29:48;;;;;;;4.70;2.85;;;;;;;10.23;63.58;95760.13;4904179;28;20728;-85
2024/02/12 05:32:13;;;;;;;4.75;2.50;;;;;;;10.09;64.04;95752.22;4891202;28;20127;-84
2024/02/12 05:34:41;;;;;;;4.68;2.22;;;;;;;10.15;64.34;95760.72;4875539;29;20048;-83
2024/02/12 05:37:06;;;;;;;4.82;2.67;;;;;;;10.21;64.43;95764.03;4871744;28;20059;-83
2024/02/12 05:39:33;;;;;;;6.13;2.60;;;;;;;10.21;64.54;95764.03;4889248;29;20063;-85
2024/02/12 05:41:59;;;;;;;3.67;2.53;;;;;;;10.23;64.47;95765.34;4888791;28;20307;-81
2024/02/12 05:44:25;;;;;;;6.40;2.83;;;;;;;10.29;64.02;95766.81;4878613;29;20307;-83
2024/02/12 05:46:50;;;;;;;5.40;2.75;;;;;;;10.35;64.30;95779.78;4882398;28;20040;-84
2024/02/12 05:49:32;;;;;;;5.75;2.45;;;;;;;10.32;63.95;95785.56;4890144;29;20485;-82
2024/02/12 05:51:58;;;;;;;5.72;2.80;;;;;;;10.27;64.37;95786.38;4947690;28;20036;-85
2024/02/12 05:54:25;;;;;;;5.32;3.35;;;;;;;10.28;64.15;95786.09;4890273;29;20039;-85
2024/02/12 05:56:50;;;;;;;4.63;2.90;;;;;;;10.35;63.73;95790.19;4912927;29;20040;-83
2024/02/12 05:59:16;;;;;;;4.90;2.90;;;;;;;10.38;64.31;95787.81;4885657;29;20083;-85
2024/02/12 06:01:42;;;;;;;5.25;2.83;;;;;;;10.37;64.26;95782.91;4887354;29;20404;-83
2024/02/12 06:04:08;;;;;;;5.22;2.95;;;;;;;10.41;63.79;95792.47;4886399;28;20592;-79
2024/02/12 06:06:38;;;;;;;8.55;3.90;;;;;;;10.44;63.75;95793.75;4897109;28;20044;-79
2024/02/12 06:09:03;;;;;;;4.72;2.58;;;;;;;10.37;63.77;95790.72;4887050;28;20033;-79
2024/02/12 06:11:29;;;;;;;4.57;2.83;;;;;;;10.29;64.70;95790.22;4888205;29;20044;-79
2024/02/12 06:13:54;;;;;;;5.50;2.75;;;;;;;10.27;64.65;95789.72;4895953;29;20033;-80
2024/02/12 06:16:19;;;;;;;4.18;2.28;;;;;;;10.27;64.49;95794.94;4889175;29;20463;-79
2024/02/12 06:18:46;;;;;;;6.03;3.15;;;;;;;10.27;65.39;95794.94;4886661;29;20068;-78
2024/02/12 06:21:12;;;;;;;5.88;3.30;;;;;;;10.30;64.83;95810.00;4889620;29;20090;-79
2024/02/12 06:23:37;;;;;;;5.80;3.80;;;;;;;10.24;65.37;95810.31;4890179;29;20029;-80
2024/02/12 06:26:02;;;;;;;7.18;4.05;;;;;;;10.26;64.90;95818.63;4889019;28;20040;-80
2024/02/12 06:28:28;;;;;;;10.43;5.07;;;;;;;10.33;65.21;95813.13;4906930;29;20067;-81
2024/02/12 06:30:53;;;;;;;6.82;4.03;;;;;;;10.38;64.65;95818.28;4904190;28;20039;-81
2024/02/12 06:33:18;;;;;;;6.55;3.58;;;;;;;10.29;64.33;95807.66;4900739;28;20040;-81
2024/02/12 06:35:44;;;;;;;7.38;3.78;;;;;;;10.43;64.09;95818.22;4876764;28;20032;-81
2024/02/12 06:38:09;;;;;;;4.93;2.70;;;;;;;10.48;64.20;95828.56;4886499;29;20020;-80
2024/02/12 06:40:35;;;;;;;7.47;3.88;;;;;;;10.39;64.10;95830.25;4884035;29;20698;-81
2024/02/12 06:43:02;;;;;;;4.90;2.92;;;;;;;10.34;64.51;95832.91;4887315;29;20048;-81
2024/02/12 06:45:28;;;;;;;5.47;3.20;;;;;;;10.32;65.40;95829.78;4920047;29;21480;-80
2024/02/12 06:47:53;;;;;;;5.53;2.92;;;;;;;10.33;64.52;95833.94;4892277;28;20040;-79
2024/02/12 06:50:19;;;;;;;3.63;2.80;;;;;;;10.25;64.42;95819.69;4879255;28;20678;-78
2024/02/12 06:52:44;;;;;;;4.47;2.00;;;;;;;10.18;64.89;95829.63;4873376;29;20047;-80
2024/02/12 06:55:10;;;;;;;2.17;1.88;;;;;;;10.21;63.88;95822.06;4904054;28;20549;-78
2024/02/12 06:57:36;;;;;;;2.20;1.60;;;;;;;10.21;64.40;95832.47;4890969;28;20040;-77
2024/02/12 07:00:03;;;;;;;3.15;1.90;;;;;;;10.11;65.10;95835.94;4869778;28;20119;-79
2024/02/12 07:02:28;;;;;;;2.00;1.80;;;;;;;10.08;64.77;95833.88;4929581;28;20095;-80
2024/02/12 07:04:54;;;;;;;3.60;1.90;;;;;;;10.07;65.21;95839.34;4889079;28;20044;-80
2024/02/12 07:07:19;;;;;;;3.17;1.77;;;;;;;9.99;65.17;95842.53;4900976;29;20076;-80
2024/02/12 07:09:45;;;;;;;2.10;1.80;;;;;;;10.03;65.45;95854.72;4869985;28;20096;-80
2024/02/12 07:12:11;;;;;;;3.85;2.15;;;;;;;9.99;65.88;95858.13;4886173;29;20382;-79
2024/02/12 07:14:37;;;;;;;3.95;2.10;;;;;;;10.04;65.84;95860.69;4901514;29;20043;-79
2024/02/12 07:17:03;;;;;;;2.72;1.80;;;;;;;10.02;65.71;95860.94;4888189;28;20074;-79
2024/02/12 07:19:30;;;;;;;2.90;2.05;;;;;;;10.10;65.80;95875.22;4904933;28;20041;-79
2024/02/12 07:21:56;;;;;;;3.58;2.25;;;;;;;10.06;65.23;95871.63;4897535;29;20055;-78
2024/02/12 07:24:21;;;;;;;2.63;1.70;;;;;;;10.00;65.34;95868.25;4879518;29;20040;-79
2024/02/12 07:26:46;;;;;;;3.53;2.20;;;;;;;9.98;65.98;95869.59;4894775;28;20067;-79
2024/02/12 07:29:12;;;;;;;3.53;1.90;;;;;;;10.03;66.28;95872.16;4907804;28;20043;-78
2024/02/12 07:31:39;;;;;;;3.00;2.00;;;;;;;10.05;65.74;95885.66;4897085;28;20125;-79
2024/02/12 07:34:05;;;;;;;3.22;2.05;;;;;;;10.12;65.21;95891.31;4879782;28;20519;-79
2024/02/12 07:36:30;;;;;;;3.10;2.53;;;;;;;10.03;65.40;95893.72;4909888;29;20028;-79
2024/02/12 07:38:55;;;;;;;4.15;2.20;;;;;;;10.00;66.18;95885.69;4918847;28;20036;-79
2024/02/12 07:41:21;;;;;;;3.40;2.20;;;;;;;10.07;65.94;95904.34;4891675;29;20318;-79
2024/02/12 07:43:46;;;;;;;3.25;2.17;;;;;;;10.07;65.96;95909.56;4914539;29;20042;-79
2024/02/12 07:46:14;;;;;;;3.22;2.13;;;;;;;10.06;66.23;95908.03;4878180;28;20036;-79
2024/02/12 07:48:41;;;;;;;2.25;1.80;;;;;;;10.07;66.06;95909.56;4893095;29;20028;-80
2024/02/12 07:51:07;;;;;;;3.70;2.15;;;;;;;10.05;66.41;95904.63;4916403;29;20481;-79
2024/02/12 07:53:32;;;;;;;3.72;1.90;;;;;;;10.12;66.24;95906.91;4888393;29;20036;-79
2024/02/12 07:55:57;;;;;;;3.60;1.98;;;;;;;10.08;65.85;95913.72;4894956;29;20090;-79
2024/02/12 07:58:24;;;;;;;4.40;2.42;;;;;;;10.19;66.17;95922.22;4905864;29;20067;-79
2024/02/12 08:00:50;;;;;;;3.53;2.28;;;;;;;10.21;66.44;95920.09;4893859;29;20488;-78
2024/02/12 08:03:18;;;;;;;5.20;2.22;;;;;;;10.30;65.70;95923.69;4885795;29;20040;-79
2024/02/12 08:05:45;;;;;;;3.47;2.45;;;;;;;10.41;66.03;95929.63;4879725;29;20032;-79
2024/02/12 08:08:11;;;;;;;2.97;2.45;;;;;;;10.35;65.61;95925.50;4915133;29;20040;-79
2024/02/12 08:10:37;;;;;;;3.38;2.08;;;;;;;10.38;66.18;95941.31;4915904;29;20039;-79
2024/02/12 08:13:04;;;;;;;3.55;2.30;;;;;;;10.41;65.92;95940.03;4911613;29;20032;-79
2024/02/12 08:15:30;;;;;;;4.32;2.50;;;;;;;10.45;66.01;95930.59;4912724;29;20051;-79
2024/02/12 08:17:55;;;;;;;5.78;2.28;;;;;;;10.48;65.45;95941.25;4906595;29;20502;-80
2024/02/12 08:20:21;;;;;;;3.45;2.17;;;;;;;10.37;65.35;95933.81;4906447;28;20036;-79
2024/02/12 08:22:46;;;;;;;5.53;2.80;;;;;;;10.42;65.42;95937.16;4896989;29;20028;-79
2024/02/12 08:25:11;;;;;;;5.15;3.10;;;;;;;10.41;66.15;95940.03;4895141;29;20064;-81
2024/02/12 08:27:37;;;;;;;6.63;2.70;;;;;;;10.37;66.15;95941.63;4893186;29;20032;-82
2024/02/12 08:30:02;;;;;;;4.82;3.40;;;;;;;10.42;66.19;95949.38;4893971;29;20037;-82
2024/02/12 08:32:28;;;;;;;3.80;3.22;;;;;;;10.49;66.41;95961.03;4879511;28;20492;-80
2024/02/12 08:34:54;;;;;;;4.20;2.65;;;;;;;10.53;65.81;95963.84;4894589;28;20028;-81
2024/02/12 08:37:19;;;;;;;5.80;3.30;;;;;;;10.50;65.69;95959.19;4877648;28;20048;-82
2024/02/12 08:39:45;;;;;;;4.47;2.83;;;;;;;10.50;66.03;95969.59;4974113;28;20043;-82
2024/02/12 08:42:10;;;;;;;5.97;3.22;;;;;;;10.49;65.57;95965.47;4903614;29;20043;-82
2024/02/12 08:44:35;;;;;;;5.50;3.33;;;;;;;10.54;65.70;95969.81;4894309;29;20119;-83
2024/02/12 08:47:01;;;;;;;4.88;3.05;;;;;;;10.51;66.03;95971.16;4887163;28;20037;-83
2024/02/12 08:49:27;;;;;;;5.70;3.05;;;;;;;10.49;65.58;95968.81;4977166;28;20068;-83
2024/02/12 08:51:53;;;;;;;5.68;3.60;;;;;;;10.57;66.06;95982.31;4910027;29;20031;-84
2024/02/12 08:54:21;;;;;;;5.03;3.38;;;;;;;10.60;66.00;95979.91;4895234;28;20040;-83
2024/02/12 08:56:46;;;;;;;7.97;3.70;;;;;;;10.56;65.92;95978.94;4879430;28;20067;-83
2024/02/12 08:59:11;;;;;;;6.18;3.40;;;;;;;10.66;66.64;95984.03;4879758;29;20068;-83
2024/02/12 09:01:38;;;;;;;6.32;3.20;;;;;;;10.58;66.46;95984.63;4905944;29;20056;-84
2024/02/12 09:04:04;;;;;;;7.15;3.67;;;;;;;10.60;66.56;95990.34;4877987;29;20036;-84
2024/02/12 09:06:29;;;;;;;6.18;3.63;;;;;;;10.60;65.93;95976.56;4892304;28;20179;-84
2024/02/12 09:08:55;;;;;;;5.07;3.53;;;;;;;10.61;66.91;95988.53;4894479;29;20615;-84
2024/02/12 09:11:20;;;;;;;5.18;3.55;;;;;;;10.49;66.88;95981.06;4896437;28;20055;-83
2024/02/12 09:13:46;;;;;;;6.15;3.50;;;;;;;10.54;66.57;95993.25;4898491;29;20127;-83
2024/02/12 09:16:12;;;;;;;6.50;4.05;;;;;;;10.59;66.83;95999.22;4875721;28;20037;-85
2024/02/12 09:18:38;;;;;;;5.05;3.38;;;;;;;10.55;66.71;96003.38;4900280;28;20040;-84
2024/02/12 09:21:04;;;;;;;6.40;3.08;;;;;;;10.59;65.88;96014.81;4915814;29;20382;-84
2024/02/12 09:23:30;;;;;;;6.00;3.50;;;;;;;10.61;65.55;96010.13;4914836;29;20558;-83
2024/02/12 09:25:56;;;;;;;4.55;3.20;;;;;;;10.63;66.40;96020.25;4900907;28;20032;-85
2024/02/12 09:28:23;;;;;;;6.45;4.10;;;;;;;10.71;65.83;96022.28;4903210;29;20648;-83
2024/02/12 09:30:49;;;;;;;4.88;3.22;;;;;;;10.70;65.52;96025.16;4910980;28;20766;-86
2024/02/12 09:33:15;;;;;;;5.82;3.85;;;;;;;10.67;65.85;96036.88;4934820;29;20515;-83
2024/02/12 09:35:41;;;;;;;5.95;3.20;;;;;;;10.76;65.82;96029.25;4891928;28;20040;-85
2024/02/12 09:38:08;;;;;;;7.25;3.28;;;;;;;10.73;65.51;96035.81;4909656;29;20033;-85
2024/02/12 09:40:33;;;;;;;6.80;2.85;;;;;;;10.54;65.79;96040.09;4899250;29;20060;-85
2024/02/12 09:43:00;;;;;;;5.32;3.20;;;;;;;10.61;65.44;96045.78;4906835;28;20071;-85
2024/02/12 09:45:29;;;;;;;4.72;3.10;;;;;;;10.63;64.24;96044.47;4910577;29;20032;-83
2024/02/12 09:47:55;;;;;;;3.92;2.53;;;;;;;10.66;65.32;96051.72;4984174;23;20086;-85
2024/02/12 09:50:26;;;;;;;5.82;3.00;;;;;;;10.70;65.07;96048.59;4931225;29;20063;-86
2024/02/12 09:52:56;;;;;;;6.38;3.50;;;;;;;10.63;65.16;96049.66;4928011;29;20063;-85
2024/02/12 09:55:22;;;;;;;4.97;2.75;;;;;;;10.52;65.39;96039.59;4918516;29;20044;-84
2024/02/12 09:57:47;;;;;;;4.25;3.03;;;;;;;10.62;65.21;96049.94;5051015;23;20057;-89
2024/02/12 10:00:13;;;;;;;5.82;3.33;;;;;;;10.57;65.10;96042.94;5398289;23;20032;-84
2024/02/12 10:02:42;;;;;;;6.82;3.03;;;;;;;10.62;65.24;96062.94;5481147;23;20108;-83
2024/02/12 10:05:17;;;;;;;4.47;2.85;;;;;;;10.63;64.90;96060.06;5012734;28;20058;-85
2024/02/12 10:07:42;;;;;;;5.32;3.30;;;;;;;10.52;65.14;96063.81;5397095;23;20120;-84
2024/02/12 10:10:08;;;;;;;3.70;2.70;;;;;;;10.60;65.14;96081.44;5054232;28;20283;-85
2024/02/12 10:12:37;;;;;;;5.60;2.78;;;;;;;10.34;66.48;96059.25;4954208;28;20027;-85
2024/02/12 10:15:04;;;;;;;3.80;2.55;;;;;;;10.47;66.19;96064.63;4962298;28;20119;-86
2024/02/12 10:17:30;;;;;;;4.78;2.78;;;;;;;10.52;65.81;96081.25;4945655;28;20480;-84
2024/02/12 10:19:55;;;;;;;6.35;2.28;;;;;;;10.57;65.82;96087.19;4985255;28;20110;-84
2024/02/12 10:22:23;;;;;;;3.13;1.83;;;;;;;10.50;65.88;96081.50;4954078;28;20081;-84
2024/02/12 10:24:49;;;;;;;4.15;2.10;;;;;;;10.43;64.97;96092.22;4952007;28;20038;-88
2024/02/12 10:27:25;;;;;;;2.47;1.30;;;;;;;10.35;64.64;96086.81;4939873;28;20043;-84
2024/02/12 10:29:58;;;;;;;1.77;1.20;;;;;;;10.55;64.60;96097.09;4942180;28;20026;-82
2024/02/12 10:32:24;;;;;;;1.70;1.42;;;;;;;10.44;64.98;96096.38;4933559;29;20075;-82
2024/02/12 10:34:55;;;;;;;2.35;1.02;;;;;;;10.32;65.22;96082.16;4916237;28;20526;-83
2024/02/12 10:37:24;;;;;;;2.13;1.15;;;;;;;10.40;64.99;96104.97;4934099;28;20042;-82
2024/02/12 10:39:51;;;;;;;1.83;1.40;;;;;;;10.46;65.41;96090.91;4929049;29;20031;-82
2024/02/12 10:42:44;;;;;;;2.53;1.23;;;;;;;10.46;65.60;96077.91;4912295;28;20126;-82
2024/02/12 10:45:10;;;;;;;2.20;1.52;;;;;;;10.53;65.57;96093.97;4949146;28;20514;-81
2024/02/12 10:47:36;;;;;;;3.05;1.30;;;;;;;10.51;65.08;96079.69;4943597;28;20147;-80
2024/02/12 10:50:05;;;;;;;1.77;1.15;;;;;;;10.52;65.34;96092.44;4939366;28;20035;-80
2024/02/12 10:52:32;;;;;;;3.00;1.30;;;;;;;10.44;64.58;96088.56;4920309;29;20518;-80
2024/02/12 10:54:57;;;;;;;1.52;1.40;;;;;;;10.48;65.68;96099.22;4949340;29;20055;-81
2024/02/12 10:57:23;;;;;;;2.85;1.30;;;;;;;10.47;65.91;96102.88;4948002;28;20077;-81
2024/02/12 11:00:05;;;;;;;2.67;1.30;;;;;;;10.60;66.09;96093.69;4921216;28;20535;-80
2024/02/12 11:02:43;;;;;;;2.08;1.15;;;;;;;10.62;65.66;96102.75;4931793;29;20332;-80
2024/02/12 11:05:12;;;;;;;1.38;1.08;;;;;;;10.61;65.60;96100.47;4908798;28;20054;-81
2024/02/12 11:07:39;;;;;;;2.05;1.48;;;;;;;10.43;64.72;96102.63;4921320;28;20282;-80
2024/02/12 11:10:08;;;;;;;1.67;1.13;;;;;;;10.56;66.20;96103.84;4950478;28;20035;-80
2024/02/12 11:12:40;;;;;;;3.00;1.33;;;;;;;10.53;66.10;96114.03;4927845;29;20289;-81
2024/02/12 11:15:12;;;;;;;3.05;1.27;;;;;;;10.48;66.42;96114.84;4918149;28;20679;-81
2024/02/12 11:17:39;;;;;;;3.50;1.70;;;;;;;10.51;65.39;96110.94;4929528;28;20031;-81
2024/02/12 11:20:16;;;;;;;2.63;1.70;;;;;;;10.57;65.77;96110.59;4950680;28;20058;-81
2024/02/12 11:22:44;;;;;;;3.00;1.40;;;;;;;10.43;66.23;96117.47;4935811;29;20085;-80
2024/02/12 11:25:15;;;;;;;1.70;1.17;;;;;;;10.42;66.58;96113.31;4919363;29;20069;-80
2024/02/12 11:27:42;;;;;;;1.65;1.20;;;;;;;10.44;66.45;96111.22;4949884;28;20031;-80
2024/02/12 11:30:10;;;;;;;4.55;1.95;;;;;;;10.50;66.06;96120.53;4919422;28;20032;-80
2024/02/12 11:32:39;;;;;;;2.60;1.67;;;;;;;10.52;66.30;96113.25;4922112;28;20032;-80
2024/02/12 11:35:19;;;;;;;4.60;2.38;;;;;;;10.59;66.58;96118.94;4943836;28;20040;-80
2024/02/12 11:37:48;;;;;;;3.45;1.92;;;;;;;10.58;66.96;96125.19;4945297;28;20031;-80
2024/02/12 11:40:18;;;;;;;3.30;1.70;;;;;;;10.67;66.56;96112.38;4933121;29;20374;-80
2024/02/12 11:42:49;;;;;;;4.82;2.15;;;;;;;10.63;66.20;96108.75;4964956;28;20035;-80
2024/02/12 11:45:18;;;;;;;3.80;2.10;;;;;;;10.70;66.30;96109.22;4921930;28;20046;-80
2024/02/12 11:47:47;;;;;;;3.47;2.47;;;;;;;10.86;66.52;96117.69;4933320;29;20035;-81
2024/02/12 11:50:24;;;;;;;4.05;2.28;;;;;;;10.95;65.99;96116.09;4923981;28;20364;-80